sensor_id;sensor_type;location;lat;lon;timestamp;P1;durP1;ratioP1;P2;durP2;ratioP2
60354;SDS011;46198;51.464;-0.066;2023-03-16T00:02:18;7.33;;;2.50;;
60354;SDS011;46198;51.464;-0.066;2023-03-16T00:04:46;8.40;;;2.57;;
60354;SDS011;46198;51.464;-0.066;2023-03-16T00:07:14;6.97;;;2.97;;
60354;SDS011;46198;51.464;-0.066;2023-03-16T00:09:42;7.03;;;2.70;;
60354;SDS011;46198;51.464;-0.066;2023-03-16T00:12:11;10.90;;;3.13;;
60354;SDS011;46198;51.464;-0.066;2023-03-16T00:14:41;7.13;;;3.15;;
60354;SDS011;46198;51.464;-0.066;2023-03-16T00:17:10;5.23;;;2.50;;
60354;SDS011;46198;51.464;-0.066;2023-03-16T00:19:47;9.27;;;2.93;;
60354;SDS011;46198;51.464;-0.066;2023-03-16T00:22:21;6.97;;;2.93;;
60354;SDS011;46198;51.464;-0.066;2023-03-16T00:24:50;9.40;;;3.17;;
60354;SDS011;46198;51.464;-0.066;2023-03-16T00:27:18;6.20;;;3.07;;
60354;SDS011;46198;51.464;-0.066;2023-03-16T00:29:49;5.57;;;2.45;;
60354;SDS011;46198;51.464;-0.066;2023-03-16T00:32:22;7.50;;;2.87;;
60354;SDS011;46198;51.464;-0.066;2023-03-16T00:34:53;5.80;;;2.90;;
60354;SDS011;46198;51.464;-0.066;2023-03-16T00:37:22;6.30;;;2.90;;
60354;SDS011;46198;51.464;-0.066;2023-03-16T00:39:51;7.40;;;2.80;;
60354;SDS011;46198;51.464;-0.066;2023-03-16T00:42:23;7.07;;;2.80;;
60354;SDS011;46198;51.464;-0.066;2023-03-16T00:44:53;4.40;;;2.57;;
60354;SDS011;46198;51.464;-0.066;2023-03-16T00:47:23;5.17;;;2.50;;
60354;SDS011;46198;51.464;-0.066;2023-03-16T00:49:54;6.07;;;2.43;;
60354;SDS011;46198;51.464;-0.066;2023-03-16T00:52:23;6.45;;;2.83;;
60354;SDS011;46198;51.464;-0.066;2023-03-16T00:54:53;5.70;;;2.70;;
60354;SDS011;46198;51.464;-0.066;2023-03-16T00:57:23;5.17;;;3.33;;
60354;SDS011;46198;51.464;-0.066;2023-03-16T00:59:54;5.23;;;3.30;;
60354;SDS011;46198;51.464;-0.066;2023-03-16T01:02:22;6.00;;;3.43;;
60354;SDS011;46198;51.464;-0.066;2023-03-16T01:04:50;11.80;;;3.90;;
60354;SDS011;46198;51.464;-0.066;2023-03-16T01:07:21;8.67;;;4.37;;
60354;SDS011;46198;51.464;-0.066;2023-03-16T01:09:49;6.63;;;3.47;;
60354;SDS011;46198;51.464;-0.066;2023-03-16T01:12:17;4.40;;;2.93;;
60354;SDS011;46198;51.464;-0.066;2023-03-16T01:14:46;7.97;;;3.47;;
60354;SDS011;46198;51.464;-0.066;2023-03-16T01:17:15;7.70;;;3.90;;
60354;SDS011;46198;51.464;-0.066;2023-03-16T01:19:44;9.57;;;3.53;;
60354;SDS011;46198;51.464;-0.066;2023-03-16T01:22:13;14.13;;;3.77;;
60354;SDS011;46198;51.464;-0.066;2023-03-16T01:27:13;8.40;;;2.97;;
60354;SDS011;46198;51.464;-0.066;2023-03-16T01:29:41;10.20;;;3.47;;
60354;SDS011;46198;51.464;-0.066;2023-03-16T01:32:10;10.93;;;3.53;;
60354;SDS011;46198;51.464;-0.066;2023-03-16T01:34:39;6.13;;;3.23;;
60354;SDS011;46198;51.464;-0.066;2023-03-16T01:37:10;5.05;;;2.85;;
60354;SDS011;46198;51.464;-0.066;2023-03-16T01:39:53;4.37;;;2.50;;
60354;SDS011;46198;51.464;-0.066;2023-03-16T01:42:22;9.87;;;3.33;;
60354;SDS011;46198;51.464;-0.066;2023-03-16T01:44:51;8.80;;;3.63;;
60354;SDS011;46198;51.464;-0.066;2023-03-16T01:47:24;6.97;;;3.17;;
60354;SDS011;46198;51.464;-0.066;2023-03-16T01:49:53;6.03;;;2.80;;
60354;SDS011;46198;51.464;-0.066;2023-03-16T01:52:26;5.50;;;3.20;;
60354;SDS011;46198;51.464;-0.066;2023-03-16T01:55:01;7.20;;;3.17;;
60354;SDS011;46198;51.464;-0.066;2023-03-16T01:57:33;6.40;;;2.93;;
60354;SDS011;46198;51.464;-0.066;2023-03-16T02:00:05;3.30;;;2.40;;
60354;SDS011;46198;51.464;-0.066;2023-03-16T02:02:50;7.47;;;3.57;;
60354;SDS011;46198;51.464;-0.066;2023-03-16T02:05:31;3.33;;;2.30;;
60354;SDS011;46198;51.464;-0.066;2023-03-16T02:08:03;6.93;;;3.10;;
60354;SDS011;46198;51.464;-0.066;2023-03-16T02:10:34;2.77;;;2.27;;
60354;SDS011;46198;51.464;-0.066;2023-03-16T02:13:04;4.38;;;3.05;;
60354;SDS011;46198;51.464;-0.066;2023-03-16T02:15:32;8.33;;;3.73;;
60354;SDS011;46198;51.464;-0.066;2023-03-16T02:18:01;5.07;;;3.43;;
60354;SDS011;46198;51.464;-0.066;2023-03-16T02:20:35;6.83;;;2.97;;
60354;SDS011;46198;51.464;-0.066;2023-03-16T02:23:09;4.73;;;3.20;;
60354;SDS011;46198;51.464;-0.066;2023-03-16T02:25:48;9.30;;;3.87;;
60354;SDS011;46198;51.464;-0.066;2023-03-16T02:28:27;6.13;;;3.83;;
60354;SDS011;46198;51.464;-0.066;2023-03-16T02:31:02;9.00;;;4.27;;
60354;SDS011;46198;51.464;-0.066;2023-03-16T02:36:01;8.00;;;3.70;;
60354;SDS011;46198;51.464;-0.066;2023-03-16T02:38:29;8.67;;;4.00;;
60354;SDS011;46198;51.464;-0.066;2023-03-16T02:40:58;8.13;;;3.80;;
60354;SDS011;46198;51.464;-0.066;2023-03-16T02:43:33;13.73;;;5.13;;
60354;SDS011;46198;51.464;-0.066;2023-03-16T02:46:14;8.73;;;4.13;;
60354;SDS011;46198;51.464;-0.066;2023-03-16T02:48:44;8.77;;;5.15;;
60354;SDS011;46198;51.464;-0.066;2023-03-16T02:51:18;12.70;;;4.83;;
60354;SDS011;46198;51.464;-0.066;2023-03-16T02:53:46;9.67;;;4.43;;
60354;SDS011;46198;51.464;-0.066;2023-03-16T02:56:14;13.57;;;4.40;;
60354;SDS011;46198;51.464;-0.066;2023-03-16T02:58:42;10.63;;;5.10;;
60354;SDS011;46198;51.464;-0.066;2023-03-16T03:01:16;9.47;;;3.93;;
60354;SDS011;46198;51.464;-0.066;2023-03-16T03:03:44;12.90;;;4.87;;
60354;SDS011;46198;51.464;-0.066;2023-03-16T03:06:12;13.93;;;5.77;;
60354;SDS011;46198;51.464;-0.066;2023-03-16T03:08:40;14.77;;;4.97;;
60354;SDS011;46198;51.464;-0.066;2023-03-16T03:11:09;9.70;;;4.27;;
60354;SDS011;46198;51.464;-0.066;2023-03-16T03:13:37;15.33;;;5.23;;
60354;SDS011;46198;51.464;-0.066;2023-03-16T03:16:11;12.90;;;4.83;;
60354;SDS011;46198;51.464;-0.066;2023-03-16T03:18:40;13.57;;;4.90;;
60354;SDS011;46198;51.464;-0.066;2023-03-16T03:21:08;9.80;;;4.23;;
60354;SDS011;46198;51.464;-0.066;2023-03-16T03:23:38;6.67;;;3.97;;
60354;SDS011;46198;51.464;-0.066;2023-03-16T03:26:06;17.30;;;4.70;;
60354;SDS011;46198;51.464;-0.066;2023-03-16T03:28:34;7.47;;;3.97;;
60354;SDS011;46198;51.464;-0.066;2023-03-16T03:31:02;9.60;;;4.57;;
60354;SDS011;46198;51.464;-0.066;2023-03-16T03:33:30;10.40;;;4.13;;
60354;SDS011;46198;51.464;-0.066;2023-03-16T03:36:02;14.18;;;4.90;;
60354;SDS011;46198;51.464;-0.066;2023-03-16T03:38:34;12.03;;;4.70;;
60354;SDS011;46198;51.464;-0.066;2023-03-16T03:41:04;13.33;;;4.37;;
60354;SDS011;46198;51.464;-0.066;2023-03-16T03:43:35;13.20;;;4.30;;
60354;SDS011;46198;51.464;-0.066;2023-03-16T03:46:06;8.18;;;4.30;;
60354;SDS011;46198;51.464;-0.066;2023-03-16T03:48:34;9.03;;;4.97;;
60354;SDS011;46198;51.464;-0.066;2023-03-16T03:51:03;9.87;;;4.70;;
60354;SDS011;46198;51.464;-0.066;2023-03-16T03:53:41;11.60;;;5.13;;
60354;SDS011;46198;51.464;-0.066;2023-03-16T03:56:27;9.97;;;5.67;;
60354;SDS011;46198;51.464;-0.066;2023-03-16T04:03:45;14.73;;;5.03;;
60354;SDS011;46198;51.464;-0.066;2023-03-16T04:06:16;7.53;;;4.33;;
60354;SDS011;46198;51.464;-0.066;2023-03-16T04:08:44;11.27;;;6.20;;
60354;SDS011;46198;51.464;-0.066;2023-03-16T04:11:16;11.60;;;4.83;;
60354;SDS011;46198;51.464;-0.066;2023-03-16T04:13:44;9.30;;;5.40;;
60354;SDS011;46198;51.464;-0.066;2023-03-16T04:16:12;11.43;;;4.83;;
60354;SDS011;46198;51.464;-0.066;2023-03-16T04:18:43;7.00;;;4.60;;
60354;SDS011;46198;51.464;-0.066;2023-03-16T04:21:13;10.43;;;5.00;;
60354;SDS011;46198;51.464;-0.066;2023-03-16T04:23:46;6.97;;;4.90;;
60354;SDS011;46198;51.464;-0.066;2023-03-16T04:26:15;8.80;;;4.75;;
60354;SDS011;46198;51.464;-0.066;2023-03-16T04:28:45;8.55;;;3.85;;
60354;SDS011;46198;51.464;-0.066;2023-03-16T04:33:46;6.60;;;4.10;;
60354;SDS011;46198;51.464;-0.066;2023-03-16T04:36:14;10.43;;;4.13;;
60354;SDS011;46198;51.464;-0.066;2023-03-16T04:38:43;7.37;;;3.03;;
60354;SDS011;46198;51.464;-0.066;2023-03-16T04:41:13;5.97;;;3.63;;
60354;SDS011;46198;51.464;-0.066;2023-03-16T04:43:49;7.47;;;4.27;;
60354;SDS011;46198;51.464;-0.066;2023-03-16T04:48:48;9.77;;;4.10;;
60354;SDS011;46198;51.464;-0.066;2023-03-16T04:51:16;7.30;;;3.20;;
60354;SDS011;46198;51.464;-0.066;2023-03-16T04:53:56;6.45;;;3.83;;
60354;SDS011;46198;51.464;-0.066;2023-03-16T04:56:32;6.23;;;3.70;;
60354;SDS011;46198;51.464;-0.066;2023-03-16T04:59:06;6.00;;;3.37;;
60354;SDS011;46198;51.464;-0.066;2023-03-16T05:01:43;10.20;;;4.50;;
60354;SDS011;46198;51.464;-0.066;2023-03-16T05:04:13;6.17;;;3.13;;
60354;SDS011;46198;51.464;-0.066;2023-03-16T05:06:46;8.10;;;3.90;;
60354;SDS011;46198;51.464;-0.066;2023-03-16T05:09:16;4.40;;;2.87;;
60354;SDS011;46198;51.464;-0.066;2023-03-16T05:11:47;6.97;;;3.20;;
60354;SDS011;46198;51.464;-0.066;2023-03-16T05:14:16;6.83;;;3.23;;
60354;SDS011;46198;51.464;-0.066;2023-03-16T05:17:06;10.48;;;3.72;;
60354;SDS011;46198;51.464;-0.066;2023-03-16T05:19:34;6.83;;;3.30;;
60354;SDS011;46198;51.464;-0.066;2023-03-16T05:22:03;5.77;;;2.93;;
60354;SDS011;46198;51.464;-0.066;2023-03-16T05:24:32;2.70;;;2.17;;
60354;SDS011;46198;51.464;-0.066;2023-03-16T05:27:04;1.93;;;1.80;;
60354;SDS011;46198;51.464;-0.066;2023-03-16T05:29:32;3.03;;;2.17;;
60354;SDS011;46198;51.464;-0.066;2023-03-16T05:32:00;5.97;;;2.40;;
60354;SDS011;46198;51.464;-0.066;2023-03-16T05:34:32;6.93;;;2.17;;
60354;SDS011;46198;51.464;-0.066;2023-03-16T05:37:00;7.47;;;3.13;;
60354;SDS011;46198;51.464;-0.066;2023-03-16T05:39:30;6.60;;;2.67;;
60354;SDS011;46198;51.464;-0.066;2023-03-16T05:41:59;3.53;;;2.57;;
60354;SDS011;46198;51.464;-0.066;2023-03-16T05:44:37;3.83;;;2.40;;
60354;SDS011;46198;51.464;-0.066;2023-03-16T05:47:16;8.73;;;3.65;;
60354;SDS011;46198;51.464;-0.066;2023-03-16T05:49:49;5.90;;;2.90;;
60354;SDS011;46198;51.464;-0.066;2023-03-16T05:52:23;7.63;;;3.43;;
60354;SDS011;46198;51.464;-0.066;2023-03-16T05:54:53;9.80;;;3.65;;
60354;SDS011;46198;51.464;-0.066;2023-03-16T05:57:21;10.97;;;3.43;;
60354;SDS011;46198;51.464;-0.066;2023-03-16T05:59:52;8.90;;;3.50;;
60354;SDS011;46198;51.464;-0.066;2023-03-16T06:02:21;8.02;;;3.13;;
60354;SDS011;46198;51.464;-0.066;2023-03-16T06:04:50;10.83;;;3.30;;
60354;SDS011;46198;51.464;-0.066;2023-03-16T06:07:18;7.90;;;2.83;;
60354;SDS011;46198;51.464;-0.066;2023-03-16T06:09:48;9.43;;;3.03;;
60354;SDS011;46198;51.464;-0.066;2023-03-16T06:12:16;9.20;;;3.20;;
60354;SDS011;46198;51.464;-0.066;2023-03-16T06:14:43;7.90;;;2.80;;
60354;SDS011;46198;51.464;-0.066;2023-03-16T06:17:15;6.53;;;3.25;;
60354;SDS011;46198;51.464;-0.066;2023-03-16T06:19:44;11.52;;;3.38;;
60354;SDS011;46198;51.464;-0.066;2023-03-16T06:22:12;8.27;;;3.10;;
60354;SDS011;46198;51.464;-0.066;2023-03-16T06:24:40;8.90;;;2.80;;
60354;SDS011;46198;51.464;-0.066;2023-03-16T06:27:09;10.50;;;3.20;;
60354;SDS011;46198;51.464;-0.066;2023-03-16T06:29:53;10.60;;;3.00;;
60354;SDS011;46198;51.464;-0.066;2023-03-16T06:32:22;10.33;;;3.00;;
60354;SDS011;46198;51.464;-0.066;2023-03-16T06:34:50;10.43;;;2.90;;
60354;SDS011;46198;51.464;-0.066;2023-03-16T06:37:18;10.17;;;2.60;;
60354;SDS011;46198;51.464;-0.066;2023-03-16T06:39:47;4.87;;;2.40;;
60354;SDS011;46198;51.464;-0.066;2023-03-16T06:42:15;3.73;;;2.40;;
60354;SDS011;46198;51.464;-0.066;2023-03-16T06:44:43;9.67;;;2.90;;
60354;SDS011;46198;51.464;-0.066;2023-03-16T06:47:12;5.60;;;2.60;;
60354;SDS011;46198;51.464;-0.066;2023-03-16T06:49:41;9.93;;;3.43;;
60354;SDS011;46198;51.464;-0.066;2023-03-16T06:52:17;7.90;;;2.60;;
60354;SDS011;46198;51.464;-0.066;2023-03-16T06:54:46;5.90;;;2.80;;
60354;SDS011;46198;51.464;-0.066;2023-03-16T06:57:16;4.07;;;2.20;;
60354;SDS011;46198;51.464;-0.066;2023-03-16T06:59:44;9.20;;;2.60;;
60354;SDS011;46198;51.464;-0.066;2023-03-16T07:02:12;6.30;;;2.63;;
60354;SDS011;46198;51.464;-0.066;2023-03-16T07:04:44;4.00;;;2.60;;
60354;SDS011;46198;51.464;-0.066;2023-03-16T07:07:12;3.50;;;1.80;;
60354;SDS011;46198;51.464;-0.066;2023-03-16T07:09:40;7.87;;;2.20;;
60354;SDS011;46198;51.464;-0.066;2023-03-16T07:12:08;7.57;;;2.10;;
60354;SDS011;46198;51.464;-0.066;2023-03-16T07:14:37;7.30;;;2.00;;
60354;SDS011;46198;51.464;-0.066;2023-03-16T07:17:07;7.63;;;1.92;;
60354;SDS011;46198;51.464;-0.066;2023-03-16T07:19:35;7.87;;;2.30;;
60354;SDS011;46198;51.464;-0.066;2023-03-16T07:22:05;4.07;;;1.90;;
60354;SDS011;46198;51.464;-0.066;2023-03-16T07:24:36;12.27;;;2.10;;
60354;SDS011;46198;51.464;-0.066;2023-03-16T07:27:04;6.30;;;2.03;;
60354;SDS011;46198;51.464;-0.066;2023-03-16T07:29:32;5.00;;;1.70;;
60354;SDS011;46198;51.464;-0.066;2023-03-16T07:32:02;6.23;;;2.47;;
60354;SDS011;46198;51.464;-0.066;2023-03-16T07:34:35;5.73;;;2.10;;
60354;SDS011;46198;51.464;-0.066;2023-03-16T07:37:05;5.13;;;3.30;;
60354;SDS011;46198;51.464;-0.066;2023-03-16T07:39:34;4.55;;;1.88;;
60354;SDS011;46198;51.464;-0.066;2023-03-16T07:42:10;3.30;;;1.90;;
60354;SDS011;46198;51.464;-0.066;2023-03-16T07:45:16;5.10;;;2.03;;
60354;SDS011;46198;51.464;-0.066;2023-03-16T07:47:45;7.10;;;1.50;;
60354;SDS011;46198;51.464;-0.066;2023-03-16T07:50:21;4.80;;;1.50;;
60354;SDS011;46198;51.464;-0.066;2023-03-16T07:52:52;4.07;;;1.50;;
60354;SDS011;46198;51.464;-0.066;2023-03-16T07:55:20;2.27;;;1.10;;
60354;SDS011;46198;51.464;-0.066;2023-03-16T07:57:50;5.83;;;1.50;;
60354;SDS011;46198;51.464;-0.066;2023-03-16T08:00:26;2.90;;;1.57;;
60354;SDS011;46198;51.464;-0.066;2023-03-16T08:02:56;3.70;;;1.40;;
60354;SDS011;46198;51.464;-0.066;2023-03-16T08:05:24;2.53;;;1.47;;
60354;SDS011;46198;51.464;-0.066;2023-03-16T08:07:59;1.83;;;1.17;;
60354;SDS011;46198;51.464;-0.066;2023-03-16T08:10:30;4.27;;;1.20;;
60354;SDS011;46198;51.464;-0.066;2023-03-16T08:13:08;3.50;;;1.60;;
60354;SDS011;46198;51.464;-0.066;2023-03-16T08:15:40;5.23;;;1.63;;
60354;SDS011;46198;51.464;-0.066;2023-03-16T08:18:15;2.50;;;1.40;;
60354;SDS011;46198;51.464;-0.066;2023-03-16T08:20:44;2.97;;;1.20;;
60354;SDS011;46198;51.464;-0.066;2023-03-16T08:23:14;1.63;;;1.23;;
60354;SDS011;46198;51.464;-0.066;2023-03-16T08:25:42;3.30;;;1.60;;
60354;SDS011;46198;51.464;-0.066;2023-03-16T08:28:15;4.87;;;2.00;;
60354;SDS011;46198;51.464;-0.066;2023-03-16T08:30:43;3.07;;;1.33;;
60354;SDS011;46198;51.464;-0.066;2023-03-16T08:33:27;5.40;;;1.80;;
60354;SDS011;46198;51.464;-0.066;2023-03-16T08:35:55;5.23;;;1.57;;
60354;SDS011;46198;51.464;-0.066;2023-03-16T08:38:25;4.60;;;2.00;;
60354;SDS011;46198;51.464;-0.066;2023-03-16T08:40:58;3.03;;;1.60;;
60354;SDS011;46198;51.464;-0.066;2023-03-16T08:43:27;3.37;;;1.83;;
60354;SDS011;46198;51.464;-0.066;2023-03-16T08:45:56;2.27;;;1.60;;
60354;SDS011;46198;51.464;-0.066;2023-03-16T08:48:31;4.53;;;2.30;;
60354;SDS011;46198;51.464;-0.066;2023-03-16T08:51:00;3.60;;;1.40;;
60354;SDS011;46198;51.464;-0.066;2023-03-16T08:53:30;3.33;;;2.30;;
60354;SDS011;46198;51.464;-0.066;2023-03-16T08:56:02;2.87;;;1.70;;
60354;SDS011;46198;51.464;-0.066;2023-03-16T08:58:31;2.87;;;1.40;;
60354;SDS011;46198;51.464;-0.066;2023-03-16T09:01:01;3.03;;;1.30;;
60354;SDS011;46198;51.464;-0.066;2023-03-16T09:03:31;3.23;;;1.30;;
60354;SDS011;46198;51.464;-0.066;2023-03-16T09:06:01;3.77;;;1.47;;
60354;SDS011;46198;51.464;-0.066;2023-03-16T09:08:33;4.40;;;1.88;;
60354;SDS011;46198;51.464;-0.066;2023-03-16T09:11:01;7.30;;;1.70;;
60354;SDS011;46198;51.464;-0.066;2023-03-16T09:13:31;4.63;;;1.27;;
60354;SDS011;46198;51.464;-0.066;2023-03-16T09:15:59;6.60;;;1.70;;
60354;SDS011;46198;51.464;-0.066;2023-03-16T09:18:28;3.33;;;1.53;;
60354;SDS011;46198;51.464;-0.066;2023-03-16T09:20:57;5.73;;;1.80;;
60354;SDS011;46198;51.464;-0.066;2023-03-16T09:23:25;7.47;;;1.60;;
60354;SDS011;46198;51.464;-0.066;2023-03-16T09:25:57;5.17;;;1.40;;
60354;SDS011;46198;51.464;-0.066;2023-03-16T09:28:26;7.47;;;1.83;;
60354;SDS011;46198;51.464;-0.066;2023-03-16T09:30:56;8.40;;;1.97;;
60354;SDS011;46198;51.464;-0.066;2023-03-16T09:33:28;6.70;;;1.87;;
60354;SDS011;46198;51.464;-0.066;2023-03-16T09:35:57;7.77;;;1.77;;
60354;SDS011;46198;51.464;-0.066;2023-03-16T09:38:26;5.40;;;2.00;;
60354;SDS011;46198;51.464;-0.066;2023-03-16T09:40:57;5.43;;;1.73;;
60354;SDS011;46198;51.464;-0.066;2023-03-16T09:43:31;6.23;;;1.70;;
60354;SDS011;46198;51.464;-0.066;2023-03-16T09:46:10;8.10;;;1.93;;
60354;SDS011;46198;51.464;-0.066;2023-03-16T09:48:42;6.37;;;1.87;;
60354;SDS011;46198;51.464;-0.066;2023-03-16T09:51:13;5.53;;;1.63;;
60354;SDS011;46198;51.464;-0.066;2023-03-16T09:53:46;7.20;;;2.03;;
60354;SDS011;46198;51.464;-0.066;2023-03-16T09:56:21;3.57;;;1.63;;
60354;SDS011;46198;51.464;-0.066;2023-03-16T09:58:56;6.13;;;1.67;;
60354;SDS011;46198;51.464;-0.066;2023-03-16T10:01:27;7.60;;;1.87;;
60354;SDS011;46198;51.464;-0.066;2023-03-16T10:04:13;7.00;;;1.90;;
60354;SDS011;46198;51.464;-0.066;2023-03-16T10:06:51;8.83;;;1.93;;
60354;SDS011;46198;51.464;-0.066;2023-03-16T10:09:30;4.90;;;1.80;;
60354;SDS011;46198;51.464;-0.066;2023-03-16T10:12:03;6.47;;;1.50;;
60354;SDS011;46198;51.464;-0.066;2023-03-16T10:14:36;6.07;;;1.90;;
60354;SDS011;46198;51.464;-0.066;2023-03-16T10:17:12;7.83;;;2.17;;
60354;SDS011;46198;51.464;-0.066;2023-03-16T10:19:44;5.67;;;1.80;;
60354;SDS011;46198;51.464;-0.066;2023-03-16T10:22:18;5.47;;;1.55;;
60354;SDS011;46198;51.464;-0.066;2023-03-16T10:24:54;4.70;;;1.75;;
60354;SDS011;46198;51.464;-0.066;2023-03-16T10:27:29;10.32;;;2.05;;
60354;SDS011;46198;51.464;-0.066;2023-03-16T10:30:00;7.35;;;1.95;;
60354;SDS011;46198;51.464;-0.066;2023-03-16T10:32:30;5.70;;;1.88;;
60354;SDS011;46198;51.464;-0.066;2023-03-16T10:35:03;5.93;;;1.95;;
60354;SDS011;46198;51.464;-0.066;2023-03-16T10:37:37;9.85;;;1.70;;
60354;SDS011;46198;51.464;-0.066;2023-03-16T10:40:06;6.65;;;1.60;;
60354;SDS011;46198;51.464;-0.066;2023-03-16T10:42:39;4.85;;;1.42;;
60354;SDS011;46198;51.464;-0.066;2023-03-16T10:45:13;6.72;;;1.75;;
60354;SDS011;46198;51.464;-0.066;2023-03-16T10:47:49;9.27;;;2.17;;
60354;SDS011;46198;51.464;-0.066;2023-03-16T10:50:21;3.25;;;1.27;;
60354;SDS011;46198;51.464;-0.066;2023-03-16T10:52:53;5.85;;;1.52;;
60354;SDS011;46198;51.464;-0.066;2023-03-16T10:55:25;8.05;;;1.45;;
60354;SDS011;46198;51.464;-0.066;2023-03-16T10:57:59;5.63;;;1.30;;
60354;SDS011;46198;51.464;-0.066;2023-03-16T11:00:28;7.32;;;1.50;;
60354;SDS011;46198;51.464;-0.066;2023-03-16T11:03:11;7.05;;;2.05;;
60354;SDS011;46198;51.464;-0.066;2023-03-16T11:05:55;10.07;;;1.63;;
60354;SDS011;46198;51.464;-0.066;2023-03-16T11:08:24;7.30;;;1.25;;
60354;SDS011;46198;51.464;-0.066;2023-03-16T11:10:54;6.32;;;1.42;;
60354;SDS011;46198;51.464;-0.066;2023-03-16T11:13:30;5.55;;;1.30;;
60354;SDS011;46198;51.464;-0.066;2023-03-16T11:16:04;6.28;;;1.60;;
60354;SDS011;46198;51.464;-0.066;2023-03-16T11:18:42;2.92;;;1.50;;
60354;SDS011;46198;51.464;-0.066;2023-03-16T11:21:14;7.78;;;1.23;;
60354;SDS011;46198;51.464;-0.066;2023-03-16T11:23:48;11.95;;;1.67;;
60354;SDS011;46198;51.464;-0.066;2023-03-16T11:26:20;6.88;;;2.10;;
60354;SDS011;46198;51.464;-0.066;2023-03-16T11:28:58;5.32;;;1.65;;
60354;SDS011;46198;51.464;-0.066;2023-03-16T11:31:32;5.07;;;1.70;;
60354;SDS011;46198;51.464;-0.066;2023-03-16T11:34:12;5.50;;;1.70;;
60354;SDS011;46198;51.464;-0.066;2023-03-16T11:36:45;4.13;;;1.65;;
60354;SDS011;46198;51.464;-0.066;2023-03-16T11:39:19;4.28;;;1.40;;
60354;SDS011;46198;51.464;-0.066;2023-03-16T11:41:59;8.63;;;2.25;;
60354;SDS011;46198;51.464;-0.066;2023-03-16T11:44:43;3.72;;;1.48;;
60354;SDS011;46198;51.464;-0.066;2023-03-16T11:47:25;5.53;;;1.50;;
60354;SDS011;46198;51.464;-0.066;2023-03-16T11:50:13;9.48;;;1.80;;
60354;SDS011;46198;51.464;-0.066;2023-03-16T11:52:51;9.27;;;2.20;;
60354;SDS011;46198;51.464;-0.066;2023-03-16T11:55:28;4.75;;;1.40;;
60354;SDS011;46198;51.464;-0.066;2023-03-16T11:58:09;5.15;;;1.50;;
60354;SDS011;46198;51.464;-0.066;2023-03-16T12:01:00;8.18;;;1.80;;
60354;SDS011;46198;51.464;-0.066;2023-03-16T12:06:33;5.68;;;1.65;;
60354;SDS011;46198;51.464;-0.066;2023-03-16T12:12:16;7.20;;;1.67;;
60354;SDS011;46198;51.464;-0.066;2023-03-16T12:14:52;5.07;;;1.40;;
60354;SDS011;46198;51.464;-0.066;2023-03-16T12:17:36;8.05;;;2.00;;
60354;SDS011;46198;51.464;-0.066;2023-03-16T12:20:09;3.92;;;1.45;;
60354;SDS011;46198;51.464;-0.066;2023-03-16T12:22:43;4.00;;;1.30;;
60354;SDS011;46198;51.464;-0.066;2023-03-16T12:25:16;5.50;;;1.58;;
60354;SDS011;46198;51.464;-0.066;2023-03-16T12:27:48;8.85;;;1.20;;
60354;SDS011;46198;51.464;-0.066;2023-03-16T12:30:30;4.63;;;1.67;;
60354;SDS011;46198;51.464;-0.066;2023-03-16T12:33:10;6.90;;;1.33;;
60354;SDS011;46198;51.464;-0.066;2023-03-16T12:35:45;4.70;;;1.48;;
60354;SDS011;46198;51.464;-0.066;2023-03-16T12:38:21;5.22;;;1.50;;
60354;SDS011;46198;51.464;-0.066;2023-03-16T12:41:09;5.18;;;1.88;;
60354;SDS011;46198;51.464;-0.066;2023-03-16T12:43:51;4.63;;;1.70;;
60354;SDS011;46198;51.464;-0.066;2023-03-16T12:46:30;6.78;;;1.92;;
60354;SDS011;46198;51.464;-0.066;2023-03-16T12:52:37;5.20;;;2.30;;
60354;SDS011;46198;51.464;-0.066;2023-03-16T12:55:11;7.80;;;1.98;;
60354;SDS011;46198;51.464;-0.066;2023-03-16T12:57:41;5.18;;;1.38;;
60354;SDS011;46198;51.464;-0.066;2023-03-16T13:00:11;4.25;;;1.50;;
60354;SDS011;46198;51.464;-0.066;2023-03-16T13:02:41;4.05;;;1.77;;
60354;SDS011;46198;51.464;-0.066;2023-03-16T13:05:13;5.32;;;1.70;;
60354;SDS011;46198;51.464;-0.066;2023-03-16T13:07:48;4.28;;;1.40;;
60354;SDS011;46198;51.464;-0.066;2023-03-16T13:10:18;5.30;;;1.77;;
60354;SDS011;46198;51.464;-0.066;2023-03-16T13:12:47;7.15;;;1.58;;
60354;SDS011;46198;51.464;-0.066;2023-03-16T13:15:27;5.10;;;1.70;;
60354;SDS011;46198;51.464;-0.066;2023-03-16T13:18:04;5.03;;;2.03;;
60354;SDS011;46198;51.464;-0.066;2023-03-16T13:20:52;3.28;;;1.70;;
60354;SDS011;46198;51.464;-0.066;2023-03-16T13:23:25;3.00;;;1.45;;
60354;SDS011;46198;51.464;-0.066;2023-03-16T13:26:04;7.45;;;1.67;;
60354;SDS011;46198;51.464;-0.066;2023-03-16T13:28:41;4.55;;;1.55;;
60354;SDS011;46198;51.464;-0.066;2023-03-16T13:33:47;8.52;;;1.58;;
60354;SDS011;46198;51.464;-0.066;2023-03-16T13:36:19;6.68;;;2.55;;
60354;SDS011;46198;51.464;-0.066;2023-03-16T13:42:32;4.82;;;1.30;;
60354;SDS011;46198;51.464;-0.066;2023-03-16T13:45:06;5.05;;;1.30;;
60354;SDS011;46198;51.464;-0.066;2023-03-16T13:47:41;4.85;;;1.80;;
60354;SDS011;46198;51.464;-0.066;2023-03-16T13:50:10;7.18;;;1.90;;
60354;SDS011;46198;51.464;-0.066;2023-03-16T13:52:40;5.10;;;1.30;;
60354;SDS011;46198;51.464;-0.066;2023-03-16T13:55:13;6.97;;;2.03;;
60354;SDS011;46198;51.464;-0.066;2023-03-16T13:57:45;7.13;;;2.10;;
60354;SDS011;46198;51.464;-0.066;2023-03-16T14:02:46;6.07;;;2.50;;
60354;SDS011;46198;51.464;-0.066;2023-03-16T14:05:19;7.00;;;2.75;;
60354;SDS011;46198;51.464;-0.066;2023-03-16T14:07:49;6.10;;;2.45;;
60354;SDS011;46198;51.464;-0.066;2023-03-16T14:10:18;7.15;;;2.15;;
60354;SDS011;46198;51.464;-0.066;2023-03-16T14:12:52;6.53;;;2.22;;
60354;SDS011;46198;51.464;-0.066;2023-03-16T14:15:21;6.68;;;2.47;;
60354;SDS011;46198;51.464;-0.066;2023-03-16T14:17:53;8.70;;;2.28;;
60354;SDS011;46198;51.464;-0.066;2023-03-16T14:20:39;7.00;;;2.35;;
60354;SDS011;46198;51.464;-0.066;2023-03-16T14:23:14;6.63;;;2.35;;
60354;SDS011;46198;51.464;-0.066;2023-03-16T14:25:46;4.65;;;2.17;;
60354;SDS011;46198;51.464;-0.066;2023-03-16T14:28:17;4.43;;;1.67;;
60354;SDS011;46198;51.464;-0.066;2023-03-16T14:30:51;7.45;;;2.00;;
60354;SDS011;46198;51.464;-0.066;2023-03-16T14:33:24;6.80;;;1.80;;
60354;SDS011;46198;51.464;-0.066;2023-03-16T14:35:56;8.70;;;2.58;;
60354;SDS011;46198;51.464;-0.066;2023-03-16T14:38:27;5.70;;;2.03;;
60354;SDS011;46198;51.464;-0.066;2023-03-16T14:45:32;4.28;;;1.77;;
60354;SDS011;46198;51.464;-0.066;2023-03-16T14:48:02;3.15;;;1.60;;
60354;SDS011;46198;51.464;-0.066;2023-03-16T14:50:32;5.80;;;1.35;;
60354;SDS011;46198;51.464;-0.066;2023-03-16T14:53:01;7.30;;;2.33;;
60354;SDS011;46198;51.464;-0.066;2023-03-16T14:55:29;5.57;;;1.80;;
60354;SDS011;46198;51.464;-0.066;2023-03-16T14:57:57;5.60;;;2.20;;
60354;SDS011;46198;51.464;-0.066;2023-03-16T15:00:25;5.07;;;1.95;;
60354;SDS011;46198;51.464;-0.066;2023-03-16T15:03:03;7.78;;;1.70;;
60354;SDS011;46198;51.464;-0.066;2023-03-16T15:05:34;6.53;;;2.00;;
60354;SDS011;46198;51.464;-0.066;2023-03-16T15:10:35;3.63;;;1.63;;
60354;SDS011;46198;51.464;-0.066;2023-03-16T15:13:06;3.28;;;1.70;;
60354;SDS011;46198;51.464;-0.066;2023-03-16T15:15:41;4.78;;;1.83;;
60354;SDS011;46198;51.464;-0.066;2023-03-16T15:18:11;6.90;;;1.88;;
60354;SDS011;46198;51.464;-0.066;2023-03-16T15:20:39;5.97;;;2.38;;
60354;SDS011;46198;51.464;-0.066;2023-03-16T15:23:11;4.50;;;1.80;;
60354;SDS011;46198;51.464;-0.066;2023-03-16T15:25:41;6.82;;;1.88;;
60354;SDS011;46198;51.464;-0.066;2023-03-16T15:28:11;7.18;;;2.22;;
60354;SDS011;46198;51.464;-0.066;2023-03-16T15:30:43;5.00;;;2.00;;
60354;SDS011;46198;51.464;-0.066;2023-03-16T15:33:17;5.68;;;1.95;;
60354;SDS011;46198;51.464;-0.066;2023-03-16T15:35:46;4.00;;;1.70;;
60354;SDS011;46198;51.464;-0.066;2023-03-16T15:38:17;8.18;;;3.10;;
60354;SDS011;46198;51.464;-0.066;2023-03-16T15:40:49;5.13;;;1.75;;
60354;SDS011;46198;51.464;-0.066;2023-03-16T15:43:18;5.78;;;2.05;;